Ana Sayfa
METAR-TAF:

METAR-TAF

Havaalanları :

Harry Clever Field

New Philadelphia, Ohio, Amerika Birleşik Devletleri

Enlem: 40-28-19N, Boylam: 081-25-25W, yükseklik: 272 m

Güncel hava durumu gözlemi

Rapor saat 06:53 UTC de 48 dakika önce yapıldı.
Rüzgar güneydoğudan 4 kt
Sıcaklık 21°C
Nem 88%
Basınç 1017 hPa
Görüş mesafesi: 14.5 km
10000 ft yükseklikte parçalı bulutlu
12000 ft yükseklikte parçalı çok bulutlu
hafif yağmur

METAR: KPHD 280653Z AUTO 14004KT 9SM -RA SCT100 BKN120 21/19 A3004 RMK AO2 SLP166 P0002 T02060189

Saat: 03:41 (07:41 UTC)


TAF: eksik

4.000'den fazla havaalanı için hava durumu gözlemleri ve tahminleri (METAR ve TAF raporları).

Kullanılabilir istasyonlar harita üzerinde sarı ve kırmızı noktalarla gösterilir.

İstasyonun adını görmek için fareyi noktanın üzerinde gezdirin.

Sonrasında hava gözlem ve tahminlerini görmek için tıklayın.

Haritayı değiştirmek için: yaklaştırmak için siyah artı işaretli yeşil düğmeye ve uzaklaştırmak için de eksi işaretli düğmeye hızla tıklayın; bitişik haritalar için yeşil okları kullanın.


METAR-TAF: